Time;durP1;ratioP1;P1;durP2;ratioP2;P2;SDS_P1;SDS_P2;PMS_P1;PMS_P2;Temp;Humidity;BMP_temperature;BMP_pressure;BME280_temperature;BME280_humidity;BME280_pressure;Samples;Min_cycle;Max_cycle;Signal;HPM_P1;HPM_P2
2022/03/26 00:00:04;;;;;;;41.13;18.35;;;13.20;44.70;;;;;;5037577;28;20543;-83
2022/03/26 00:02:30;;;;;;;39.08;19.15;;;13.20;45.10;;;;;;5037053;28;20025;-83
2022/03/26 00:04:56;;;;;;;37.88;18.35;;;13.20;45.00;;;;;;5037463;28;20029;-83
2022/03/26 00:07:21;;;;;;;39.20;18.05;;;13.10;45.10;;;;;;5036972;28;20033;-83
2022/03/26 00:09:47;;;;;;;39.00;18.10;;;13.20;45.00;;;;;;5037001;28;20033;-83
2022/03/26 00:12:13;;;;;;;37.78;18.45;;;13.20;45.10;;;;;;5020750;28;20536;-83
2022/03/26 00:14:38;;;;;;;38.40;16.92;;;13.00;45.40;;;;;;5019348;28;20071;-82
2022/03/26 00:17:04;;;;;;;39.75;18.67;;;13.00;45.40;;;;;;5016213;28;20034;-83
2022/03/26 00:19:30;;;;;;;38.08;18.40;;;12.90;45.80;;;;;;4999442;28;20487;-83
2022/03/26 00:21:56;;;;;;;36.08;18.35;;;12.90;45.90;;;;;;5017600;28;20030;-83
2022/03/26 00:24:22;;;;;;;40.05;17.83;;;12.80;46.20;;;;;;5033395;28;20460;-83
2022/03/26 00:26:48;;;;;;;45.15;18.00;;;12.80;46.00;;;;;;5036639;28;20128;-83
2022/03/26 00:29:14;;;;;;;37.05;17.88;;;12.80;46.30;;;;;;5019383;28;20037;-83
2022/03/26 00:31:40;;;;;;;42.55;19.10;;;12.70;46.50;;;;;;5016943;28;20026;-83
2022/03/26 00:34:07;;;;;;;36.53;15.98;;;12.70;46.40;;;;;;5017171;28;20030;-83
2022/03/26 00:36:33;;;;;;;41.38;17.33;;;12.70;46.50;;;;;;5031512;28;20479;-83
2022/03/26 00:38:59;;;;;;;39.85;16.77;;;12.60;46.60;;;;;;5018842;28;20025;-83
2022/03/26 00:41:24;;;;;;;37.47;17.60;;;12.70;46.70;;;;;;4998983;28;20508;-83
2022/03/26 00:43:50;;;;;;;35.15;16.95;;;12.60;46.70;;;;;;5016910;28;20018;-83
2022/03/26 00:46:16;;;;;;;38.97;17.80;;;12.50;46.90;;;;;;5017609;28;20029;-83
2022/03/26 00:48:42;;;;;;;35.45;16.95;;;12.50;46.90;;;;;;5033753;28;20044;-83
2022/03/26 00:51:09;;;;;;;39.58;18.08;;;12.50;47.10;;;;;;5026989;28;20112;-83
2022/03/26 00:53:34;;;;;;;38.03;17.45;;;12.40;47.20;;;;;;5016874;28;20025;-83
2022/03/26 00:56:00;;;;;;;36.75;15.82;;;12.40;47.30;;;;;;5016566;28;20395;-83
2022/03/26 00:58:26;;;;;;;31.83;17.38;;;12.30;47.50;;;;;;5018229;28;20038;-83
2022/03/26 01:00:52;;;;;;;31.48;16.17;;;12.20;47.90;;;;;;5035962;28;20480;-83
2022/03/26 01:03:18;;;;;;;36.05;16.17;;;12.20;47.90;;;;;;5035955;28;20029;-83
2022/03/26 01:05:44;;;;;;;39.15;16.45;;;12.20;48.00;;;;;;5036552;28;20029;-83
2022/03/26 01:08:10;;;;;;;36.13;17.40;;;12.20;47.90;;;;;;5035086;28;20044;-83
2022/03/26 01:10:36;;;;;;;35.25;17.00;;;12.20;48.30;;;;;;5018400;28;20071;-84
2022/03/26 01:13:03;;;;;;;39.15;17.13;;;12.20;48.00;;;;;;5035709;28;20532;-84
2022/03/26 01:15:28;;;;;;;41.08;17.23;;;12.10;48.20;;;;;;5035865;28;20095;-83
2022/03/26 01:17:54;;;;;;;33.72;17.00;;;12.10;48.40;;;;;;5035669;28;20112;-83
2022/03/26 01:20:20;;;;;;;33.67;15.32;;;12.00;48.70;;;;;;5035778;28;20036;-84
2022/03/26 01:22:46;;;;;;;38.10;16.83;;;12.00;48.60;;;;;;5018251;28;20028;-83
2022/03/26 01:25:12;;;;;;;34.53;15.88;;;12.00;48.40;;;;;;5035340;28;20401;-84
2022/03/26 01:27:38;;;;;;;36.63;16.65;;;12.10;48.30;;;;;;5018319;28;20109;-83
2022/03/26 01:30:05;;;;;;;34.22;16.25;;;12.00;48.30;;;;;;5036092;28;20033;-84
2022/03/26 01:32:31;;;;;;;31.23;14.68;;;12.00;48.40;;;;;;5034877;28;20864;-84
2022/03/26 01:34:57;;;;;;;34.13;15.45;;;12.00;48.30;;;;;;5035552;28;20029;-84
2022/03/26 01:37:24;;;;;;;34.13;16.13;;;11.90;48.60;;;;;;5018043;28;20030;-83
2022/03/26 01:39:50;;;;;;;34.90;16.27;;;11.90;48.60;;;;;;5035853;28;21002;-83
2022/03/26 01:42:16;;;;;;;33.08;15.02;;;11.90;48.60;;;;;;5023942;28;20056;-84
2022/03/26 01:44:43;;;;;;;33.05;15.27;;;11.90;48.60;;;;;;5015776;28;20065;-84
2022/03/26 01:47:09;;;;;;;32.83;15.48;;;11.90;48.50;;;;;;5020052;28;20109;-84
2022/03/26 01:49:34;;;;;;;34.10;15.05;;;11.80;48.50;;;;;;5035256;28;20057;-84
2022/03/26 01:52:02;;;;;;;34.03;16.23;;;11.90;48.70;;;;;;5035026;28;20044;-83
2022/03/26 01:54:28;;;;;;;34.42;15.02;;;11.90;48.40;;;;;;5017453;28;20036;-83
2022/03/26 01:56:54;;;;;;;29.17;14.88;;;11.80;48.70;;;;;;5035446;28;20053;-83
2022/03/26 01:59:21;;;;;;;30.52;12.73;;;11.70;49.10;;;;;;5034997;28;20460;-84
2022/03/26 02:01:47;;;;;;;31.25;14.32;;;11.80;48.80;;;;;;5035495;28;20017;-84
2022/03/26 02:04:12;;;;;;;30.98;14.57;;;11.80;48.80;;;;;;5033832;28;20031;-84
2022/03/26 02:06:40;;;;;;;34.58;15.23;;;11.70;48.90;;;;;;5043620;28;20028;-83
2022/03/26 02:09:10;;;;;;;27.30;13.48;;;11.60;49.30;;;;;;5055035;28;20040;-83
2022/03/26 02:11:37;;;;;;;33.00;15.25;;;11.60;49.40;;;;;;5024235;28;20033;-84
2022/03/26 02:14:04;;;;;;;32.50;14.15;;;11.50;49.60;;;;;;5035484;28;20025;-83
2022/03/26 02:16:32;;;;;;;30.77;14.95;;;11.40;49.80;;;;;;5022464;28;20492;-84
2022/03/26 02:18:58;;;;;;;33.00;14.65;;;11.40;49.70;;;;;;5015798;28;20558;-84
2022/03/26 02:21:24;;;;;;;31.58;13.63;;;11.40;49.60;;;;;;5015417;28;20029;-84
2022/03/26 02:23:51;;;;;;;31.55;14.60;;;11.30;50.00;;;;;;5028242;28;20541;-84
2022/03/26 02:26:20;;;;;;;32.55;15.05;;;11.40;49.60;;;;;;5053336;28;20052;-84
2022/03/26 02:28:46;;;;;;;31.92;13.82;;;11.40;49.70;;;;;;5055142;28;20036;-84
2022/03/26 02:31:16;;;;;;;29.52;13.25;;;11.30;50.20;;;;;;5049669;28;20093;-84
2022/03/26 02:33:42;;;;;;;34.80;14.70;;;11.30;50.20;;;;;;5035139;28;20036;-84
2022/03/26 02:36:09;;;;;;;29.67;14.90;;;11.30;50.10;;;;;;5034524;28;20485;-84
2022/03/26 02:38:36;;;;;;;33.63;13.45;;;11.30;50.20;;;;;;5035115;28;20025;-83
2022/03/26 02:41:03;;;;;;;30.30;14.45;;;11.20;50.30;;;;;;5034337;28;20124;-84
2022/03/26 02:43:29;;;;;;;30.20;14.63;;;11.20;50.50;;;;;;5019471;28;20029;-84
2022/03/26 02:45:55;;;;;;;28.73;14.13;;;11.20;50.80;;;;;;5038813;28;20029;-84
2022/03/26 02:48:21;;;;;;;26.55;13.13;;;11.20;50.70;;;;;;5021207;28;20018;-84
2022/03/26 02:50:47;;;;;;;30.38;13.32;;;11.10;51.00;;;;;;5038504;28;20036;-84
2022/03/26 02:53:13;;;;;;;23.83;14.18;;;11.20;50.70;;;;;;5038602;28;20037;-83
2022/03/26 02:55:40;;;;;;;27.67;13.80;;;11.20;51.10;;;;;;5038982;28;20021;-83
2022/03/26 02:58:07;;;;;;;33.28;13.55;;;11.10;51.30;;;;;;5038916;28;20033;-84
2022/03/26 03:00:34;;;;;;;32.28;13.35;;;11.20;51.20;;;;;;5020348;28;20573;-84
2022/03/26 03:03:00;;;;;;;35.03;14.73;;;11.00;51.80;;;;;;5020578;28;20029;-84
2022/03/26 03:05:26;;;;;;;34.20;15.50;;;10.90;52.10;;;;;;5038215;28;20140;-83
2022/03/26 03:07:53;;;;;;;28.55;13.25;;;10.90;52.20;;;;;;5038737;28;20107;-84
2022/03/26 03:10:19;;;;;;;30.38;13.18;;;11.00;52.00;;;;;;5038562;28;20025;-84
2022/03/26 03:12:47;;;;;;;31.80;15.50;;;11.00;52.00;;;;;;5038166;28;20081;-84
2022/03/26 03:15:16;;;;;;;27.80;14.32;;;10.90;52.20;;;;;;5020777;28;20025;-83
2022/03/26 03:17:42;;;;;;;26.73;14.43;;;10.90;52.10;;;;;;5038051;28;20087;-84
2022/03/26 03:20:09;;;;;;;25.80;13.57;;;10.80;52.50;;;;;;5020616;28;20029;-84
2022/03/26 03:22:36;;;;;;;26.55;14.15;;;10.90;52.40;;;;;;5037870;28;20041;-84
2022/03/26 03:25:03;;;;;;;27.70;14.15;;;10.90;52.10;;;;;;5017228;28;20018;-84
2022/03/26 03:27:29;;;;;;;29.63;13.77;;;11.00;52.10;;;;;;5004943;28;20084;-83
2022/03/26 03:29:54;;;;;;;27.63;14.25;;;10.90;52.30;;;;;;5020462;28;20026;-84
2022/03/26 03:32:20;;;;;;;30.17;13.52;;;11.00;52.10;;;;;;5038208;28;20037;-84
2022/03/26 03:34:46;;;;;;;35.25;15.07;;;11.00;52.10;;;;;;5038341;28;20163;-84
2022/03/26 03:37:11;;;;;;;26.05;13.98;;;11.00;52.10;;;;;;5031268;28;20042;-84
2022/03/26 03:39:37;;;;;;;30.88;14.65;;;11.00;52.00;;;;;;5018420;28;20018;-83
2022/03/26 03:42:04;;;;;;;26.15;12.75;;;10.90;52.20;;;;;;5018312;28;20080;-84
2022/03/26 03:44:30;;;;;;;29.98;15.45;;;11.00;51.70;;;;;;5018260;28;20021;-84
2022/03/26 03:46:56;;;;;;;27.60;13.52;;;11.10;51.40;;;;;;5020949;28;20797;-84
2022/03/26 03:49:22;;;;;;;32.53;14.52;;;11.10;51.40;;;;;;5038039;28;20022;-83
2022/03/26 03:51:48;;;;;;;31.15;15.25;;;11.00;51.60;;;;;;5037987;28;20032;-83
2022/03/26 03:54:14;;;;;;;29.40;14.00;;;11.10;51.20;;;;;;5036795;28;20025;-83
2022/03/26 03:56:40;;;;;;;27.35;13.60;;;11.10;51.30;;;;;;5037012;28;20032;-83
2022/03/26 03:59:06;;;;;;;33.55;15.32;;;11.10;51.00;;;;;;5036411;28;20025;-83
2022/03/26 04:01:31;;;;;;;30.25;14.77;;;11.20;50.90;;;;;;5037821;28;20408;-83
2022/03/26 04:03:57;;;;;;;32.35;14.80;;;11.10;50.90;;;;;;5037288;28;20377;-84
2022/03/26 04:06:23;;;;;;;26.60;12.60;;;11.00;50.90;;;;;;5037684;28;20114;-83
2022/03/26 04:08:49;;;;;;;29.55;14.43;;;11.00;51.00;;;;;;5037746;28;20021;-83
2022/03/26 04:11:15;;;;;;;32.88;14.85;;;10.80;51.50;;;;;;5018289;28;20073;-83
2022/03/26 04:13:40;;;;;;;32.22;16.33;;;10.80;51.30;;;;;;5017596;28;20022;-84
2022/03/26 04:16:07;;;;;;;28.25;14.02;;;10.80;51.70;;;;;;5037242;28;20061;-84
2022/03/26 04:18:34;;;;;;;28.85;14.05;;;10.80;51.70;;;;;;5036942;28;20040;-84
2022/03/26 04:21:00;;;;;;;30.42;15.00;;;10.70;52.00;;;;;;5019567;28;20029;-84
2022/03/26 04:23:26;;;;;;;30.63;14.43;;;10.60;52.20;;;;;;5019295;28;20104;-84
2022/03/26 04:25:51;;;;;;;35.92;15.60;;;10.60;52.00;;;;;;5015748;28;20053;-83
2022/03/26 04:28:17;;;;;;;36.88;14.88;;;10.60;51.90;;;;;;5026407;28;20052;-84
2022/03/26 04:30:43;;;;;;;36.33;15.95;;;10.60;52.10;;;;;;5037257;28;20032;-84
2022/03/26 04:33:09;;;;;;;32.25;15.48;;;10.50;52.30;;;;;;5019224;28;20022;-84
2022/03/26 04:35:35;;;;;;;32.15;15.18;;;10.50;52.10;;;;;;5035909;28;20041;-83
2022/03/26 04:38:01;;;;;;;37.65;15.07;;;10.50;52.20;;;;;;5036689;28;20026;-83
2022/03/26 04:40:28;;;;;;;29.67;14.60;;;10.40;52.60;;;;;;5037032;28;20472;-84
2022/03/26 04:42:55;;;;;;;35.42;16.17;;;10.40;52.40;;;;;;5036998;28;20036;-84
2022/03/26 04:45:21;;;;;;;39.65;14.95;;;10.40;52.10;;;;;;5036132;28;20029;-84
2022/03/26 04:47:47;;;;;;;33.88;15.52;;;10.40;52.10;;;;;;5026383;28;20039;-84
2022/03/26 04:50:13;;;;;;;28.83;15.07;;;10.40;52.20;;;;;;5016989;28;20025;-84
2022/03/26 04:52:39;;;;;;;33.20;16.27;;;10.50;52.00;;;;;;4999265;28;20545;-84
2022/03/26 04:55:10;;;;;;;35.67;14.77;;;10.50;51.80;;;;;;5017371;28;20036;-83
2022/03/26 04:57:41;;;;;;;29.92;15.25;;;10.50;51.80;;;;;;5015404;28;20033;-84
2022/03/26 05:00:09;;;;;;;32.03;15.65;;;10.50;51.90;;;;;;5028118;28;20021;-84
2022/03/26 05:02:36;;;;;;;31.77;15.25;;;10.50;51.80;;;;;;5035796;28;20026;-84
2022/03/26 05:05:02;;;;;;;35.03;15.55;;;10.50;51.90;;;;;;5018503;28;20034;-84
2022/03/26 05:07:47;;;;;;;33.65;15.82;;;10.30;52.60;;;;;;5034994;28;20106;-84
2022/03/26 05:10:14;;;;;;;35.72;15.05;;;10.40;52.30;;;;;;5036360;28;20082;-84
2022/03/26 05:12:39;;;;;;;29.98;14.07;;;10.30;52.50;;;;;;5020806;28;20048;-83
2022/03/26 05:15:05;;;;;;;31.90;14.85;;;10.30;52.50;;;;;;5016740;28;20512;-84
2022/03/26 05:17:31;;;;;;;30.17;15.57;;;10.30;52.50;;;;;;5015395;28;20034;-84
2022/03/26 05:19:57;;;;;;;30.70;15.63;;;10.30;52.60;;;;;;5015197;28;20117;-84
2022/03/26 05:22:22;;;;;;;35.47;14.75;;;10.20;52.90;;;;;;5016122;28;20048;-84
2022/03/26 05:24:48;;;;;;;28.23;14.20;;;10.20;52.90;;;;;;5016236;28;20034;-84
2022/03/26 05:27:13;;;;;;;33.30;14.95;;;10.20;52.80;;;;;;5016591;28;20068;-84
2022/03/26 05:29:39;;;;;;;29.55;14.48;;;10.20;52.60;;;;;;5016232;28;20022;-84
2022/03/26 05:32:06;;;;;;;32.10;15.68;;;10.20;53.10;;;;;;5016343;28;20108;-84
2022/03/26 05:34:32;;;;;;;29.95;14.45;;;10.20;52.80;;;;;;5019275;28;20025;-84
2022/03/26 05:36:58;;;;;;;29.77;13.77;;;10.30;52.50;;;;;;5018190;28;20052;-84
2022/03/26 05:39:24;;;;;;;30.15;14.48;;;10.30;52.50;;;;;;5017862;28;20472;-83
2022/03/26 05:41:50;;;;;;;35.08;15.60;;;10.30;52.70;;;;;;5030595;28;20417;-83
2022/03/26 05:44:16;;;;;;;32.70;15.20;;;10.30;52.40;;;;;;5016143;28;20030;-84
2022/03/26 05:46:42;;;;;;;28.25;14.82;;;10.30;52.40;;;;;;5017303;28;20030;-84
2022/03/26 05:49:09;;;;;;;27.80;14.43;;;10.30;52.00;;;;;;5035767;28;20034;-84
2022/03/26 05:51:34;;;;;;;28.67;13.60;;;10.30;52.20;;;;;;5017804;28;20030;-83
2022/03/26 05:54:00;;;;;;;26.88;14.40;;;10.40;52.10;;;;;;5017330;28;20087;-83
2022/03/26 05:56:26;;;;;;;30.73;13.63;;;10.50;51.70;;;;;;5035471;28;20037;-83
2022/03/26 05:58:52;;;;;;;32.72;14.95;;;10.40;51.80;;;;;;5035171;28;20032;-84
2022/03/26 06:01:17;;;;;;;29.95;14.57;;;10.50;51.80;;;;;;5016692;28;20026;-84
2022/03/26 06:03:43;;;;;;;32.60;14.30;;;10.30;52.20;;;;;;5022253;28;20136;-83
2022/03/26 06:06:09;;;;;;;38.63;14.90;;;10.30;52.20;;;;;;5012440;28;20025;-84
2022/03/26 06:08:35;;;;;;;27.02;14.43;;;10.40;51.90;;;;;;5034366;28;20416;-83
2022/03/26 06:11:00;;;;;;;31.30;14.23;;;10.30;52.10;;;;;;5035196;28;20037;-83
2022/03/26 06:13:26;;;;;;;30.02;14.05;;;10.40;52.00;;;;;;5017236;28;20558;-83
2022/03/26 06:15:52;;;;;;;32.25;15.57;;;10.40;52.20;;;;;;5015969;28;20471;-84
2022/03/26 06:18:17;;;;;;;32.78;16.15;;;10.40;51.80;;;;;;5014944;28;20022;-83
2022/03/26 06:20:43;;;;;;;31.50;13.95;;;10.50;51.90;;;;;;5026390;28;20022;-84
2022/03/26 06:23:09;;;;;;;35.40;15.65;;;10.50;51.60;;;;;;5035166;28;20392;-84
2022/03/26 06:25:34;;;;;;;32.72;16.55;;;10.60;51.50;;;;;;5034428;28;20057;-84
2022/03/26 06:28:01;;;;;;;35.70;15.35;;;10.60;51.80;;;;;;5034948;28;20057;-84
2022/03/26 06:30:27;;;;;;;30.50;14.10;;;10.70;51.20;;;;;;5032591;28;20044;-84
2022/03/26 06:32:53;;;;;;;37.33;15.75;;;10.70;51.20;;;;;;5034928;28;20060;-83
2022/03/26 06:35:19;;;;;;;31.05;13.85;;;10.70;51.30;;;;;;5016933;28;20079;-83
2022/03/26 06:37:45;;;;;;;32.50;16.67;;;10.70;51.40;;;;;;5034313;28;20017;-84
2022/03/26 06:40:11;;;;;;;33.70;13.93;;;10.80;51.10;;;;;;5034864;28;20558;-84
2022/03/26 06:42:36;;;;;;;33.67;14.88;;;10.80;51.00;;;;;;5031825;28;20050;-84
2022/03/26 06:45:03;;;;;;;31.42;14.50;;;10.70;51.10;;;;;;5025043;28;20072;-84
2022/03/26 06:47:31;;;;;;;32.72;15.63;;;10.80;51.00;;;;;;5034494;28;20034;-84
2022/03/26 06:49:57;;;;;;;25.67;13.75;;;10.70;51.20;;;;;;5028255;28;20033;-85
2022/03/26 06:52:24;;;;;;;27.33;14.00;;;10.90;51.00;;;;;;5027627;28;20030;-85
2022/03/26 06:54:50;;;;;;;29.52;14.10;;;10.80;51.00;;;;;;5008891;28;20026;-84
2022/03/26 06:57:16;;;;;;;31.40;14.35;;;10.90;50.80;;;;;;5008307;28;20022;-76
2022/03/26 07:07:53;;;;;;;32.03;16.33;;;12.00;48.10;;;;;;5130665;27;20522;-75
2022/03/26 07:10:19;;;;;;;29.50;14.18;;;12.30;47.80;;;;;;5130909;28;20024;-76
2022/03/26 07:12:44;;;;;;;32.28;15.55;;;13.10;46.20;;;;;;5130505;28;20060;-76
2022/03/26 07:15:10;;;;;;;29.40;16.25;;;13.30;46.40;;;;;;5131637;28;20027;-76
2022/03/26 07:17:41;;;;;;;28.98;14.07;;;13.60;44.40;;;;;;5133428;28;20147;-76
2022/03/26 07:20:08;;;;;;;28.23;15.85;;;14.10;43.60;;;;;;5132530;28;20648;-76
2022/03/26 07:22:34;;;;;;;32.38;16.23;;;14.70;43.40;;;;;;5125721;28;20028;-75
2022/03/26 07:25:01;;;;;;;29.85;16.60;;;15.50;42.00;;;;;;5106689;27;20032;-76
2022/03/26 07:27:34;;;;;;;37.67;17.27;;;16.00;40.10;;;;;;5065058;28;20033;-79
2022/03/26 07:32:09;;;;;;;31.83;16.15;;;17.30;38.30;;;;;;5109949;27;20925;-77
2022/03/26 07:34:35;;;;;;;34.67;17.63;;;18.30;35.40;;;;;;5094227;28;20032;-78
2022/03/26 07:37:01;;;;;;;34.05;17.45;;;19.30;33.00;;;;;;5094812;28;20030;-80
2022/03/26 07:39:27;;;;;;;30.13;17.75;;;20.70;32.70;;;;;;5093779;28;20394;-78
2022/03/26 07:41:53;;;;;;;32.92;19.05;;;21.80;29.90;;;;;;5113070;28;20136;-77
2022/03/26 07:44:19;;;;;;;32.88;18.55;;;22.50;28.70;;;;;;5093061;28;20062;-77
2022/03/26 07:46:45;;;;;;;35.15;19.45;;;22.30;27.60;;;;;;5111860;28;20023;-77
2022/03/26 07:49:11;;;;;;;30.80;20.15;;;23.30;27.40;;;;;;5092562;28;20036;-76
2022/03/26 07:51:37;;;;;;;28.77;19.00;;;24.00;26.70;;;;;;5104148;28;20031;-77
2022/03/26 07:54:03;;;;;;;31.48;19.70;;;24.30;25.50;;;;;;5110354;28;20043;-78
2022/03/26 07:56:28;;;;;;;35.10;19.92;;;24.60;24.60;;;;;;5096037;28;20065;-78
2022/03/26 07:58:54;;;;;;;32.45;19.85;;;24.60;24.40;;;;;;5121749;28;20035;-78
2022/03/26 08:01:20;;;;;;;28.60;19.55;;;25.10;24.60;;;;;;5121551;28;20576;-76
2022/03/26 08:03:46;;;;;;;35.67;22.45;;;25.20;24.60;;;;;;5116070;28;20028;-78
2022/03/26 08:06:12;;;;;;;28.65;20.85;;;25.80;24.30;;;;;;5111017;28;20032;-77
2022/03/26 08:08:40;;;;;;;30.02;19.92;;;25.60;23.90;;;;;;5112170;28;20108;-80
2022/03/26 08:11:06;;;;;;;29.77;20.00;;;26.20;22.60;;;;;;5091722;28;20069;-77
2022/03/26 08:13:33;;;;;;;27.48;19.20;;;26.80;22.50;;;;;;5109877;28;20035;-75
2022/03/26 08:15:59;;;;;;;30.92;20.25;;;26.90;21.80;;;;;;5102397;28;20663;-75
2022/03/26 08:18:24;;;;;;;29.58;21.08;;;26.30;21.90;;;;;;5108693;28;20024;-77
2022/03/26 08:20:50;;;;;;;27.33;20.88;;;26.50;22.90;;;;;;5110175;28;20027;-77
2022/03/26 08:23:16;;;;;;;29.42;20.60;;;27.10;22.60;;;;;;5111220;28;20059;-77
2022/03/26 08:38:34;;;;;;;30.98;22.10;;;27.70;21.90;;;;;;5069435;28;20383;-75
2022/03/26 08:41:00;;;;;;;27.05;21.70;;;28.60;21.50;;;;;;5063407;28;20100;-75
2022/03/26 08:43:26;;;;;;;28.92;21.77;;;29.60;20.90;;;;;;5069943;28;20074;-75
2022/03/26 08:45:52;;;;;;;32.42;23.60;;;30.30;20.00;;;;;;5062185;28;20547;-75
2022/03/26 08:48:17;;;;;;;26.60;22.05;;;30.60;19.50;;;;;;5071842;28;20096;-75
2022/03/26 08:50:43;;;;;;;28.88;22.67;;;30.90;19.70;;;;;;5054529;28;20025;-75
2022/03/26 08:53:10;;;;;;;28.73;23.08;;;30.30;18.80;;;;;;5054875;28;20029;-75
2022/03/26 08:55:36;;;;;;;29.73;21.48;;;29.60;19.40;;;;;;5070940;28;20057;-75
2022/03/26 08:58:02;;;;;;;28.17;23.20;;;29.50;20.50;;;;;;5061462;28;20797;-75
2022/03/26 09:00:28;;;;;;;28.42;22.80;;;28.80;20.90;;;;;;5061833;28;20028;-75
2022/03/26 09:02:54;;;;;;;28.98;21.88;;;27.60;21.50;;;;;;5071344;28;20025;-75
2022/03/26 09:05:20;;;;;;;30.42;23.13;;;28.60;21.90;;;;;;5071200;28;20110;-75
2022/03/26 09:07:45;;;;;;;28.52;23.00;;;27.20;22.60;;;;;;5069314;28;20071;-75
2022/03/26 09:10:11;;;;;;;31.88;22.42;;;27.60;22.20;;;;;;5069351;28;20499;-76
2022/03/26 09:12:38;;;;;;;28.95;21.85;;;28.50;22.30;;;;;;5066309;28;20104;-76
2022/03/26 09:15:06;;;;;;;30.55;22.73;;;28.80;21.90;;;;;;5071145;28;20031;-76
2022/03/26 09:17:33;;;;;;;28.67;22.77;;;29.10;21.80;;;;;;5068839;28;20082;-76
2022/03/26 09:19:58;;;;;;;32.35;24.23;;;29.30;21.20;;;;;;5067128;28;20026;-76
2022/03/26 09:22:24;;;;;;;29.63;23.05;;;29.30;21.30;;;;;;5067821;28;20067;-76
2022/03/26 09:24:51;;;;;;;31.58;24.08;;;29.00;21.20;;;;;;5070270;28;20029;-76
2022/03/26 09:27:17;;;;;;;34.60;25.98;;;29.50;20.60;;;;;;5070404;28;20094;-76
2022/03/26 09:29:44;;;;;;;29.83;23.73;;;29.70;20.80;;;;;;5066690;28;20025;-76
2022/03/26 09:32:10;;;;;;;32.85;24.88;;;29.70;20.70;;;;;;5069714;28;20104;-76
2022/03/26 09:34:36;;;;;;;29.25;23.75;;;30.00;20.40;;;;;;5068870;28;20064;-76
2022/03/26 09:37:02;;;;;;;34.70;25.55;;;29.80;20.70;;;;;;5065122;28;20051;-76
2022/03/26 09:39:28;;;;;;;33.42;25.00;;;29.70;19.50;;;;;;5064971;28;20080;-76
2022/03/26 09:41:56;;;;;;;33.55;25.70;;;29.70;20.50;;;;;;5064286;28;20096;-77
2022/03/26 09:44:22;;;;;;;;;;;28.30;20.70;;;;;;5062128;28;20024;-83
2022/03/26 09:46:48;;;;;;;29.67;24.45;;;28.80;21.30;;;;;;5068124;28;19913;-79
2022/03/26 09:49:14;;;;;;;37.17;27.15;;;28.80;20.70;;;;;;5060433;28;20032;-80
2022/03/26 09:51:41;;;;;;;33.03;26.40;;;28.30;20.80;;;;;;5055811;28;20029;-87
2022/03/26 09:54:08;;;;;;;36.15;26.50;;;28.00;21.70;;;;;;5042801;28;20025;-81
2022/03/26 09:56:34;;;;;;;32.75;25.20;;;28.10;21.40;;;;;;5037412;28;20112;-78
2022/03/26 09:59:00;;;;;;;33.03;25.23;;;28.40;21.40;;;;;;5039359;28;20010;-76
2022/03/26 10:01:26;;;;;;;36.08;24.75;;;28.50;20.60;;;;;;5057399;28;20035;-80
2022/03/26 10:04:13;;;;;;;37.03;26.20;;;28.90;21.00;;;;;;5055712;28;20127;-78
2022/03/26 10:06:50;;;;;;;32.67;24.88;;;28.80;21.10;;;;;;5055976;28;20021;-80
2022/03/26 10:09:40;;;;;;;32.90;26.83;;;29.00;21.50;;;;;;5055679;28;20506;-79
2022/03/26 10:12:11;;;;;;;33.38;27.17;;;28.30;20.90;;;;;;5054624;28;20078;-88
2022/03/26 10:14:45;;;;;;;36.88;27.42;;;27.80;21.40;;;;;;5056628;28;20068;-83
2022/03/26 10:17:24;;;;;;;36.25;26.80;;;27.80;21.70;;;;;;5057247;28;20040;-84
2022/03/26 10:19:54;;;;;;;34.67;26.98;;;26.60;22.60;;;;;;5041730;28;20550;-76
2022/03/26 10:22:40;;;;;;;39.83;27.98;;;26.50;22.50;;;;;;5037273;28;20116;-76
2022/03/26 10:25:10;;;;;;;41.75;26.95;;;25.60;23.30;;;;;;5037144;28;20136;-77
2022/03/26 10:27:56;;;;;;;39.70;27.25;;;25.20;24.60;;;;;;5039918;28;20036;-75
2022/03/26 10:33:28;;;;;;;41.63;26.55;;;24.00;26.10;;;;;;5055525;28;20095;-77
2022/03/26 10:36:01;;;;;;;47.00;26.45;;;22.80;27.40;;;;;;5056697;28;20395;-80
2022/03/26 10:38:42;;;;;;;42.30;24.23;;;22.70;28.10;;;;;;5048497;28;20410;-81
2022/03/26 10:41:09;;;;;;;40.83;25.23;;;22.50;28.30;;;;;;5053422;28;20023;-77
2022/03/26 10:43:39;;;;;;;48.20;27.40;;;22.20;27.80;;;;;;5056526;28;20029;-76
2022/03/26 10:46:05;;;;;;;42.70;25.05;;;22.10;28.20;;;;;;5054407;28;20139;-76
2022/03/26 10:48:33;;;;;;;44.13;24.23;;;22.20;29.30;;;;;;5056555;28;20057;-77
2022/03/26 10:51:02;;;;;;;47.55;26.80;;;21.90;30.10;;;;;;5051000;28;20088;-78
2022/03/26 10:53:39;;;;;;;46.38;24.05;;;22.00;29.30;;;;;;5054783;28;20036;-76
2022/03/26 10:56:07;;;;;;;44.15;25.27;;;21.60;30.40;;;;;;5036469;28;20053;-74
2022/03/26 10:58:34;;;;;;;45.10;24.17;;;21.50;30.20;;;;;;5036055;28;20532;-74
2022/03/26 11:01:00;;;;;;;49.33;26.25;;;21.40;29.20;;;;;;5050075;28;20098;-75
2022/03/26 11:03:26;;;;;;;46.28;25.15;;;21.70;29.40;;;;;;5040899;28;20037;-75
2022/03/26 11:05:56;;;;;;;45.05;24.58;;;21.70;30.80;;;;;;5052579;28;20039;-75
2022/03/26 11:08:23;;;;;;;46.45;25.00;;;21.30;30.60;;;;;;5057234;28;20060;-75
2022/03/26 11:10:58;;;;;;;45.95;24.63;;;21.20;31.30;;;;;;5043842;28;20055;-75
2022/03/26 11:13:26;;;;;;;43.00;24.10;;;21.50;31.30;;;;;;5054689;28;20061;-75
2022/03/26 11:16:02;;;;;;;39.42;22.90;;;21.70;31.90;;;;;;5053934;28;20441;-75
2022/03/26 11:18:57;;;;;;;50.58;25.38;;;21.80;29.30;;;;;;5054957;28;20033;-75
2022/03/26 11:21:41;;;;;;;44.72;25.08;;;21.80;29.40;;;;;;5044372;28;20060;-75
2022/03/26 11:24:07;;;;;;;44.28;24.42;;;21.50;30.30;;;;;;5056648;28;20056;-75
2022/03/26 11:26:52;;;;;;;43.72;23.70;;;21.70;29.40;;;;;;5053076;28;20624;-75
2022/03/26 11:29:39;;;;;;;43.42;22.60;;;21.80;28.70;;;;;;5052846;28;21038;-75
2022/03/26 11:32:29;;;;;;;43.95;23.60;;;21.70;29.40;;;;;;5058060;28;20032;-76
2022/03/26 11:35:09;;;;;;;47.25;24.40;;;22.00;29.40;;;;;;5075026;28;20035;-75
2022/03/26 11:37:35;;;;;;;46.05;24.83;;;21.60;29.50;;;;;;5054747;28;20045;-75
2022/03/26 11:40:01;;;;;;;41.70;23.73;;;21.60;29.30;;;;;;5054614;28;20033;-75
2022/03/26 11:42:37;;;;;;;43.78;24.60;;;21.60;28.20;;;;;;5050230;28;20029;-75
2022/03/26 11:51:22;;;;;;;46.42;23.85;;;21.90;28.10;;;;;;5043337;28;20050;-77
2022/03/26 11:53:49;;;;;;;;;;;21.70;28.50;;;;;;5034855;28;20337;-76
2022/03/26 11:56:24;;;;;;;42.00;22.33;;;21.80;29.00;;;;;;5038902;28;19927;-82
2022/03/26 11:59:11;;;;;;;43.45;24.35;;;21.70;27.60;;;;;;5047480;28;20115;-81
2022/03/26 12:01:41;;;;;;;43.35;21.90;;;21.30;27.40;;;;;;5050567;28;20066;-80
2022/03/26 12:04:12;;;;;;;37.88;20.30;;;21.10;28.70;;;;;;5050800;28;20028;-78
2022/03/26 12:06:56;;;;;;;45.70;24.40;;;20.90;27.50;;;;;;5035740;28;20033;-78
2022/03/26 12:09:33;;;;;;;39.90;22.52;;;21.10;27.70;;;;;;5035507;28;20025;-77
2022/03/26 12:12:05;;;;;;;44.80;23.25;;;21.30;27.40;;;;;;5047896;28;20052;-75
2022/03/26 12:14:32;;;;;;;43.92;21.25;;;21.30;29.20;;;;;;5055512;28;20403;-79
2022/03/26 12:16:58;;;;;;;51.08;21.95;;;21.30;28.80;;;;;;5046410;28;20388;-81
2022/03/26 12:19:47;;;;;;;44.28;22.60;;;21.30;28.90;;;;;;5034097;28;20025;-79
2022/03/26 12:22:18;;;;;;;47.08;24.02;;;21.40;29.70;;;;;;5035595;28;20380;-79
2022/03/26 12:24:44;;;;;;;45.42;22.83;;;21.70;28.20;;;;;;5034334;28;20119;-80
2022/03/26 12:27:10;;;;;;;43.70;23.60;;;21.70;28.50;;;;;;5053356;28;20029;-80
2022/03/26 12:29:39;;;;;;;41.60;23.08;;;21.80;29.40;;;;;;5035360;28;20036;-78
2022/03/26 12:32:05;;;;;;;45.43;23.37;;;21.80;28.80;;;;;;5067539;28;20033;-77
2022/03/26 12:34:31;;;;;;;49.80;23.13;;;21.80;29.10;;;;;;5050405;28;20474;-78
2022/03/26 12:37:01;;;;;;;44.67;23.13;;;21.60;30.50;;;;;;5035242;28;20116;-78
2022/03/26 12:39:27;;;;;;;45.92;22.38;;;21.80;31.60;;;;;;5067718;28;20093;-77
2022/03/26 12:41:54;;;;;;;40.05;21.13;;;22.00;30.50;;;;;;5035405;28;20522;-82
2022/03/26 12:44:22;;;;;;;47.25;25.13;;;22.20;30.30;;;;;;5074395;28;20025;-82
2022/03/26 12:46:49;;;;;;;44.78;24.58;;;22.10;28.80;;;;;;5055290;28;20025;-83
2022/03/26 12:49:20;;;;;;;47.88;24.48;;;21.90;29.50;;;;;;5055197;28;20032;-79
2022/03/26 12:51:49;;;;;;;;;;;22.00;28.90;;;;;;5053953;28;20029;-82
2022/03/26 12:54:15;;;;;;;43.05;22.67;;;22.20;29.60;;;;;;5053510;28;20260;-80
2022/03/26 12:56:44;;;;;;;43.28;22.90;;;22.30;29.00;;;;;;5053564;28;20059;-75
2022/03/26 12:59:13;;;;;;;44.22;22.50;;;22.40;30.10;;;;;;5045269;28;20020;-75
2022/03/26 13:01:39;;;;;;;45.17;24.20;;;22.50;29.30;;;;;;5051146;28;20499;-75